sensor_id;sensor_type;location;lat;lon;timestamp;pressure;altitude;pressure_sealevel;temperature;humidity
76746;BME280;65671;49.976;20.038;2023-03-01T00:01:08;99194.44;;;-2.55;73.84
76746;BME280;65671;49.976;20.038;2023-03-01T00:03:34;99194.38;;;-2.45;73.06
76746;BME280;65671;49.976;20.038;2023-03-01T00:06:00;99192.06;;;-2.57;73.92
76746;BME280;65671;49.976;20.038;2023-03-01T00:08:27;99193.53;;;-2.41;73.82
76746;BME280;65671;49.976;20.038;2023-03-01T00:13:32;99184.88;;;-2.56;73.39
76746;BME280;65671;49.976;20.038;2023-03-01T00:15:58;99200.22;;;-2.48;73.37
76746;BME280;65671;49.976;20.038;2023-03-01T00:18:26;99199.44;;;-2.49;74.15
76746;BME280;65671;49.976;20.038;2023-03-01T00:20:53;99181.44;;;-2.57;73.36
76746;BME280;65671;49.976;20.038;2023-03-01T00:23:20;99188.72;;;-2.39;73.80
76746;BME280;65671;49.976;20.038;2023-03-01T00:25:45;99189.53;;;-2.38;73.44
76746;BME280;65671;49.976;20.038;2023-03-01T00:28:11;99186.88;;;-2.38;73.26
76746;BME280;65671;49.976;20.038;2023-03-01T00:30:37;99191.69;;;-2.40;73.35
76746;BME280;65671;49.976;20.038;2023-03-01T00:33:02;99188.53;;;-2.42;74.05
76746;BME280;65671;49.976;20.038;2023-03-01T00:35:28;99177.63;;;-2.41;72.75
76746;BME280;65671;49.976;20.038;2023-03-01T00:37:53;99169.91;;;-2.37;72.98
76746;BME280;65671;49.976;20.038;2023-03-01T00:40:26;99182.41;;;-2.43;73.82
76746;BME280;65671;49.976;20.038;2023-03-01T00:42:52;99171.06;;;-2.48;74.21
76746;BME280;65671;49.976;20.038;2023-03-01T00:45:18;99183.22;;;-2.47;73.93
76746;BME280;65671;49.976;20.038;2023-03-01T00:47:43;99167.63;;;-2.49;73.83
76746;BME280;65671;49.976;20.038;2023-03-01T00:50:11;99173.41;;;-2.47;73.19
76746;BME280;65671;49.976;20.038;2023-03-01T00:52:37;99168.59;;;-2.40;72.82
76746;BME280;65671;49.976;20.038;2023-03-01T00:55:03;99171.72;;;-2.33;72.85
76746;BME280;65671;49.976;20.038;2023-03-01T00:57:29;99160.91;;;-2.41;72.78
76746;BME280;65671;49.976;20.038;2023-03-01T00:59:54;99160.63;;;-2.73;75.32
76746;BME280;65671;49.976;20.038;2023-03-01T01:02:19;99166.66;;;-2.63;73.48
76746;BME280;65671;49.976;20.038;2023-03-01T01:04:45;99170.13;;;-2.67;74.96
76746;BME280;65671;49.976;20.038;2023-03-01T01:07:11;99165.47;;;-2.86;74.83
76746;BME280;65671;49.976;20.038;2023-03-01T01:09:36;99152.22;;;-2.86;76.00
76746;BME280;65671;49.976;20.038;2023-03-01T01:12:02;99148.78;;;-2.81;75.65
76746;BME280;65671;49.976;20.038;2023-03-01T01:14:28;99148.28;;;-2.88;76.05
76746;BME280;65671;49.976;20.038;2023-03-01T01:16:54;99159.78;;;-3.03;77.67
76746;BME280;65671;49.976;20.038;2023-03-01T01:19:20;99157.25;;;-3.23;78.57
76746;BME280;65671;49.976;20.038;2023-03-01T01:21:45;99151.00;;;-3.47;80.24
76746;BME280;65671;49.976;20.038;2023-03-01T01:24:11;99147.28;;;-3.51;79.48
76746;BME280;65671;49.976;20.038;2023-03-01T01:26:37;99143.25;;;-3.33;79.21
76746;BME280;65671;49.976;20.038;2023-03-01T01:29:04;99126.66;;;-3.49;79.87
76746;BME280;65671;49.976;20.038;2023-03-01T01:31:31;99134.56;;;-3.44;79.84
76746;BME280;65671;49.976;20.038;2023-03-01T01:33:58;99131.97;;;-3.59;81.50
76746;BME280;65671;49.976;20.038;2023-03-01T01:36:24;99137.81;;;-3.62;80.29
76746;BME280;65671;49.976;20.038;2023-03-01T01:38:50;99134.16;;;-3.71;81.42
76746;BME280;65671;49.976;20.038;2023-03-01T01:41:17;99128.59;;;-3.70;80.96
76746;BME280;65671;49.976;20.038;2023-03-01T01:43:45;99124.59;;;-3.62;81.58
76746;BME280;65671;49.976;20.038;2023-03-01T01:46:32;99119.50;;;-3.54;81.77
76746;BME280;65671;49.976;20.038;2023-03-01T01:52:00;99128.31;;;-3.68;82.01
76746;BME280;65671;49.976;20.038;2023-03-01T01:54:34;99118.75;;;-3.59;81.49
76746;BME280;65671;49.976;20.038;2023-03-01T01:57:03;99124.00;;;-3.49;80.93
76746;BME280;65671;49.976;20.038;2023-03-01T01:59:33;99119.75;;;-3.50;81.24
76746;BME280;65671;49.976;20.038;2023-03-01T02:02:02;99125.84;;;-3.50;81.03
76746;BME280;65671;49.976;20.038;2023-03-01T02:04:30;99126.16;;;-3.56;82.54
76746;BME280;65671;49.976;20.038;2023-03-01T02:07:06;99125.13;;;-3.60;81.79
76746;BME280;65671;49.976;20.038;2023-03-01T02:09:35;99122.97;;;-3.53;82.30
76746;BME280;65671;49.976;20.038;2023-03-01T02:12:02;99112.72;;;-3.75;83.06
76746;BME280;65671;49.976;20.038;2023-03-01T02:14:29;99116.38;;;-3.66;82.79
76746;BME280;65671;49.976;20.038;2023-03-01T02:16:55;99113.50;;;-3.74;83.42
76746;BME280;65671;49.976;20.038;2023-03-01T02:19:42;99110.00;;;-3.55;82.70
76746;BME280;65671;49.976;20.038;2023-03-01T02:22:22;99112.66;;;-3.60;82.83
76746;BME280;65671;49.976;20.038;2023-03-01T02:27:19;99119.50;;;-3.54;79.22
76746;BME280;65671;49.976;20.038;2023-03-01T02:29:49;99128.50;;;-3.50;79.69
76746;BME280;65671;49.976;20.038;2023-03-01T02:32:16;99132.50;;;-3.52;79.36
76746;BME280;65671;49.976;20.038;2023-03-01T02:34:52;99133.03;;;-3.55;79.73
76746;BME280;65671;49.976;20.038;2023-03-01T02:37:19;99126.72;;;-3.64;80.78
76746;BME280;65671;49.976;20.038;2023-03-01T02:39:59;99134.03;;;-3.41;78.81
76746;BME280;65671;49.976;20.038;2023-03-01T02:42:36;99134.53;;;-3.39;79.24
76746;BME280;65671;49.976;20.038;2023-03-01T02:45:06;99120.78;;;-3.41;79.41
76746;BME280;65671;49.976;20.038;2023-03-01T02:47:31;99128.44;;;-3.34;78.31
76746;BME280;65671;49.976;20.038;2023-03-01T02:49:57;99136.16;;;-2.99;76.94
76746;BME280;65671;49.976;20.038;2023-03-01T02:52:41;99129.69;;;-2.83;76.94
76746;BME280;65671;49.976;20.038;2023-03-01T02:55:13;99126.19;;;-2.73;77.45
76746;BME280;65671;49.976;20.038;2023-03-01T02:57:42;99128.56;;;-3.11;77.26
76746;BME280;65671;49.976;20.038;2023-03-01T03:00:15;99131.13;;;-3.01;77.82
76746;BME280;65671;49.976;20.038;2023-03-01T03:02:46;99132.53;;;-3.08;77.85
76746;BME280;65671;49.976;20.038;2023-03-01T03:05:16;99134.22;;;-2.89;77.97
76746;BME280;65671;49.976;20.038;2023-03-01T03:07:44;99135.78;;;-3.26;77.50
76746;BME280;65671;49.976;20.038;2023-03-01T03:10:13;99130.88;;;-3.43;77.63
76746;BME280;65671;49.976;20.038;2023-03-01T03:12:40;99127.94;;;-3.42;77.80
76746;BME280;65671;49.976;20.038;2023-03-01T03:15:07;99127.66;;;-3.40;78.76
76746;BME280;65671;49.976;20.038;2023-03-01T03:17:39;99126.22;;;-3.66;80.29
76746;BME280;65671;49.976;20.038;2023-03-01T03:20:06;99115.13;;;-3.83;80.64
76746;BME280;65671;49.976;20.038;2023-03-01T03:22:37;99117.00;;;-3.84;81.13
76746;BME280;65671;49.976;20.038;2023-03-01T03:25:05;99116.47;;;-3.81;80.68
76746;BME280;65671;49.976;20.038;2023-03-01T03:27:30;99118.59;;;-3.78;80.54
76746;BME280;65671;49.976;20.038;2023-03-01T03:29:57;99122.75;;;-3.67;80.28
76746;BME280;65671;49.976;20.038;2023-03-01T03:32:22;99117.84;;;-3.99;81.69
76746;BME280;65671;49.976;20.038;2023-03-01T03:34:48;99119.31;;;-3.67;81.42
76746;BME280;65671;49.976;20.038;2023-03-01T03:37:14;99115.63;;;-3.66;80.75
76746;BME280;65671;49.976;20.038;2023-03-01T03:40:00;99104.72;;;-3.60;81.08
76746;BME280;65671;49.976;20.038;2023-03-01T03:42:26;99105.59;;;-3.79;82.02
76746;BME280;65671;49.976;20.038;2023-03-01T03:44:51;99106.66;;;-3.80;81.42
76746;BME280;65671;49.976;20.038;2023-03-01T03:47:17;99102.19;;;-3.85;81.64
76746;BME280;65671;49.976;20.038;2023-03-01T03:49:43;99100.84;;;-3.82;81.62
76746;BME280;65671;49.976;20.038;2023-03-01T03:52:08;99100.22;;;-3.59;80.24
76746;BME280;65671;49.976;20.038;2023-03-01T03:54:40;99104.38;;;-3.43;81.06
76746;BME280;65671;49.976;20.038;2023-03-01T03:57:06;99116.91;;;-3.59;80.46
76746;BME280;65671;49.976;20.038;2023-03-01T03:59:32;99103.28;;;-3.91;80.91
76746;BME280;65671;49.976;20.038;2023-03-01T04:01:58;99110.47;;;-4.12;81.45
76746;BME280;65671;49.976;20.038;2023-03-01T04:04:24;99108.31;;;-3.95;81.46
76746;BME280;65671;49.976;20.038;2023-03-01T04:06:49;99115.19;;;-3.93;81.37
76746;BME280;65671;49.976;20.038;2023-03-01T04:09:14;99122.53;;;-3.75;80.64
76746;BME280;65671;49.976;20.038;2023-03-01T04:11:40;99120.59;;;-3.60;79.90
76746;BME280;65671;49.976;20.038;2023-03-01T04:14:06;99114.22;;;-3.54;79.69
76746;BME280;65671;49.976;20.038;2023-03-01T04:16:31;99114.22;;;-3.54;79.84
76746;BME280;65671;49.976;20.038;2023-03-01T04:18:57;99123.47;;;-3.46;80.42
76746;BME280;65671;49.976;20.038;2023-03-01T04:21:25;99118.72;;;-3.54;79.88
76746;BME280;65671;49.976;20.038;2023-03-01T04:23:50;99119.28;;;-3.62;80.62
76746;BME280;65671;49.976;20.038;2023-03-01T04:26:18;99119.84;;;-3.65;80.53
76746;BME280;65671;49.976;20.038;2023-03-01T04:28:45;99114.91;;;-3.92;82.40
76746;BME280;65671;49.976;20.038;2023-03-01T04:31:13;99116.78;;;-4.03;81.21
76746;BME280;65671;49.976;20.038;2023-03-01T04:33:45;99122.00;;;-3.72;80.90
76746;BME280;65671;49.976;20.038;2023-03-01T04:36:12;99118.72;;;-3.54;80.56
76746;BME280;65671;49.976;20.038;2023-03-01T04:38:38;99120.16;;;-3.77;80.50
76746;BME280;65671;49.976;20.038;2023-03-01T04:41:09;99118.81;;;-3.74;80.33
76746;BME280;65671;49.976;20.038;2023-03-01T04:43:36;99116.00;;;-4.03;82.62
76746;BME280;65671;49.976;20.038;2023-03-01T04:46:04;99117.84;;;-3.99;81.34
76746;BME280;65671;49.976;20.038;2023-03-01T04:48:32;99117.84;;;-3.93;81.91
76746;BME280;65671;49.976;20.038;2023-03-01T04:50:59;99099.13;;;-4.27;82.85
76746;BME280;65671;49.976;20.038;2023-03-01T04:53:26;99111.56;;;-4.23;83.43
76746;BME280;65671;49.976;20.038;2023-03-01T04:55:51;99111.03;;;-4.20;83.94
76746;BME280;65671;49.976;20.038;2023-03-01T04:58:17;99098.31;;;-4.18;82.80
76746;BME280;65671;49.976;20.038;2023-03-01T05:00:42;99089.84;;;-4.05;82.64
76746;BME280;65671;49.976;20.038;2023-03-01T05:03:11;99103.00;;;-3.95;82.66
76746;BME280;65671;49.976;20.038;2023-03-01T05:05:37;99090.94;;;-4.26;83.87
76746;BME280;65671;49.976;20.038;2023-03-01T05:08:06;99095.69;;;-4.23;83.22
76746;BME280;65671;49.976;20.038;2023-03-01T05:10:34;99097.53;;;-4.23;83.10
76746;BME280;65671;49.976;20.038;2023-03-01T05:13:01;99094.66;;;-4.37;83.22
76746;BME280;65671;49.976;20.038;2023-03-01T05:15:29;99085.66;;;-4.26;83.58
76746;BME280;65671;49.976;20.038;2023-03-01T05:17:58;99076.63;;;-4.05;83.32
76746;BME280;65671;49.976;20.038;2023-03-01T05:20:28;99085.09;;;-4.18;82.68
76746;BME280;65671;49.976;20.038;2023-03-01T05:22:59;99073.75;;;-4.33;83.98
76746;BME280;65671;49.976;20.038;2023-03-01T05:25:26;99084.53;;;-4.00;83.21
76746;BME280;65671;49.976;20.038;2023-03-01T05:27:51;99085.06;;;-4.03;83.31
76746;BME280;65671;49.976;20.038;2023-03-01T05:30:17;99077.16;;;-4.18;84.38
76746;BME280;65671;49.976;20.038;2023-03-01T05:32:49;99075.81;;;-4.05;83.08
76746;BME280;65671;49.976;20.038;2023-03-01T05:35:17;99077.94;;;-4.12;84.22
76746;BME280;65671;49.976;20.038;2023-03-01T05:37:45;99087.75;;;-4.23;83.74
76746;BME280;65671;49.976;20.038;2023-03-01T05:40:13;99087.47;;;-4.16;84.39
76746;BME280;65671;49.976;20.038;2023-03-01T05:42:54;99095.63;;;-4.03;83.46
76746;BME280;65671;49.976;20.038;2023-03-01T05:45:21;99081.34;;;-4.07;83.75
76746;BME280;65671;49.976;20.038;2023-03-01T05:47:48;99104.03;;;-3.85;83.14
76746;BME280;65671;49.976;20.038;2023-03-01T05:50:38;99109.28;;;-3.70;82.29
76746;BME280;65671;49.976;20.038;2023-03-01T05:53:16;99110.28;;;-3.61;81.18
76746;BME280;65671;49.976;20.038;2023-03-01T05:55:44;99105.56;;;-3.74;80.65
76746;BME280;65671;49.976;20.038;2023-03-01T05:58:14;99113.03;;;-3.86;81.70
76746;BME280;65671;49.976;20.038;2023-03-01T06:00:41;99096.19;;;-4.06;81.99
76746;BME280;65671;49.976;20.038;2023-03-01T06:03:10;99102.22;;;-3.90;81.76
76746;BME280;65671;49.976;20.038;2023-03-01T06:05:36;99101.31;;;-3.65;82.18
76746;BME280;65671;49.976;20.038;2023-03-01T06:08:02;99104.47;;;-3.58;81.13
76746;BME280;65671;49.976;20.038;2023-03-01T06:10:29;99102.41;;;-3.76;81.15
76746;BME280;65671;49.976;20.038;2023-03-01T06:12:55;99095.28;;;-3.76;81.46
76746;BME280;65671;49.976;20.038;2023-03-01T06:15:21;99100.22;;;-3.59;81.09
76746;BME280;65671;49.976;20.038;2023-03-01T06:17:48;99108.59;;;-3.37;81.30
76746;BME280;65671;49.976;20.038;2023-03-01T06:20:19;99095.66;;;-3.44;80.83
76746;BME280;65671;49.976;20.038;2023-03-01T06:22:46;99099.09;;;-3.43;80.88
76746;BME280;65671;49.976;20.038;2023-03-01T06:25:13;99095.28;;;-3.27;80.89
76746;BME280;65671;49.976;20.038;2023-03-01T06:27:41;99108.94;;;-3.05;79.86
76746;BME280;65671;49.976;20.038;2023-03-01T06:30:09;99095.97;;;-2.72;78.65
76746;BME280;65671;49.976;20.038;2023-03-01T06:32:36;99098.13;;;-2.46;78.01
76746;BME280;65671;49.976;20.038;2023-03-01T06:35:03;99106.75;;;-2.35;77.34
76746;BME280;65671;49.976;20.038;2023-03-01T06:37:29;99111.56;;;-2.37;77.08
76746;BME280;65671;49.976;20.038;2023-03-01T06:39:54;99102.69;;;-1.99;77.09
76746;BME280;65671;49.976;20.038;2023-03-01T06:42:20;99107.44;;;-1.96;77.15
76746;BME280;65671;49.976;20.038;2023-03-01T06:44:45;99099.28;;;-2.04;77.52
76746;BME280;65671;49.976;20.038;2023-03-01T06:47:11;99099.94;;;-2.17;78.26
76746;BME280;65671;49.976;20.038;2023-03-01T06:49:37;99103.47;;;-2.22;78.01
76746;BME280;65671;49.976;20.038;2023-03-01T06:52:02;99108.88;;;-1.85;78.80
76746;BME280;65671;49.976;20.038;2023-03-01T06:54:28;99103.00;;;-1.58;77.05
76746;BME280;65671;49.976;20.038;2023-03-01T06:56:54;99100.50;;;-1.49;75.88
76746;BME280;65671;49.976;20.038;2023-03-01T06:59:19;99102.66;;;-1.51;75.64
76746;BME280;65671;49.976;20.038;2023-03-01T07:01:45;99107.31;;;-1.43;76.91
76746;BME280;65671;49.976;20.038;2023-03-01T07:04:12;99103.75;;;-1.34;76.31
76746;BME280;65671;49.976;20.038;2023-03-01T07:06:38;99110.09;;;-1.53;76.36
76746;BME280;65671;49.976;20.038;2023-03-01T07:09:04;99105.03;;;-1.74;76.78
76746;BME280;65671;49.976;20.038;2023-03-01T07:11:29;99109.94;;;-1.86;78.45
76746;BME280;65671;49.976;20.038;2023-03-01T07:13:55;99096.34;;;-1.79;76.93
76746;BME280;65671;49.976;20.038;2023-03-01T07:16:21;99090.59;;;-1.86;77.44
76746;BME280;65671;49.976;20.038;2023-03-01T07:18:47;99086.28;;;-1.82;77.26
76746;BME280;65671;49.976;20.038;2023-03-01T07:21:14;99084.03;;;-1.94;76.94
76746;BME280;65671;49.976;20.038;2023-03-01T07:23:40;99079.19;;;-1.87;77.46
76746;BME280;65671;49.976;20.038;2023-03-01T07:26:06;99034.88;;;-1.86;77.04
76746;BME280;65671;49.976;20.038;2023-03-01T07:28:31;99063.38;;;-1.54;76.97
76746;BME280;65671;49.976;20.038;2023-03-01T07:31:05;99050.91;;;-1.54;76.36
76746;BME280;65671;49.976;20.038;2023-03-01T07:33:32;99053.41;;;-1.44;77.24
76746;BME280;65671;49.976;20.038;2023-03-01T07:36:02;99048.09;;;-1.25;76.68
76746;BME280;65671;49.976;20.038;2023-03-01T07:38:29;99032.72;;;-1.28;75.66
76746;BME280;65671;49.976;20.038;2023-03-01T07:41:00;99038.53;;;-1.26;76.71
76746;BME280;65671;49.976;20.038;2023-03-01T07:43:30;99027.84;;;-1.21;76.67
76746;BME280;65671;49.976;20.038;2023-03-01T07:46:02;99043.47;;;-1.01;75.96
76746;BME280;65671;49.976;20.038;2023-03-01T07:48:30;99033.00;;;-1.11;74.72
76746;BME280;65671;49.976;20.038;2023-03-01T07:51:04;99045.91;;;-1.04;74.92
76746;BME280;65671;49.976;20.038;2023-03-01T07:53:31;99051.63;;;-0.79;74.41
76746;BME280;65671;49.976;20.038;2023-03-01T07:56:07;99068.22;;;-0.54;74.03
76746;BME280;65671;49.976;20.038;2023-03-01T07:58:38;99054.44;;;-0.57;73.79
76746;BME280;65671;49.976;20.038;2023-03-01T08:01:05;99073.13;;;-0.16;71.70
76746;BME280;65671;49.976;20.038;2023-03-01T08:03:32;99066.41;;;0.00;70.49
76746;BME280;65671;49.976;20.038;2023-03-01T08:06:02;99080.22;;;0.30;69.07
76746;BME280;65671;49.976;20.038;2023-03-01T08:08:29;99085.03;;;0.55;69.04
76746;BME280;65671;49.976;20.038;2023-03-01T08:10:59;99076.94;;;0.46;69.93
76746;BME280;65671;49.976;20.038;2023-03-01T08:13:26;99082.47;;;0.50;70.74
76746;BME280;65671;49.976;20.038;2023-03-01T08:15:52;99067.75;;;0.39;70.72
76746;BME280;65671;49.976;20.038;2023-03-01T08:18:18;99074.56;;;0.45;70.92
76746;BME280;65671;49.976;20.038;2023-03-01T08:20:45;99084.34;;;0.36;72.11
76746;BME280;65671;49.976;20.038;2023-03-01T08:23:10;99076.66;;;0.34;71.56
76746;BME280;65671;49.976;20.038;2023-03-01T08:25:36;99069.56;;;0.43;70.50
76746;BME280;65671;49.976;20.038;2023-03-01T08:28:02;99066.63;;;0.18;71.78
76746;BME280;65671;49.976;20.038;2023-03-01T08:30:28;99064.84;;;0.13;71.72
76746;BME280;65671;49.976;20.038;2023-03-01T08:32:53;99059.63;;;0.08;71.46
76746;BME280;65671;49.976;20.038;2023-03-01T08:35:19;99058.31;;;0.33;71.84
76746;BME280;65671;49.976;20.038;2023-03-01T08:37:45;99041.19;;;0.47;71.77
76746;BME280;65671;49.976;20.038;2023-03-01T08:40:10;99037.94;;;0.50;71.48
76746;BME280;65671;49.976;20.038;2023-03-01T08:42:40;99037.88;;;0.78;69.03
76746;BME280;65671;49.976;20.038;2023-03-01T08:45:06;99039.91;;;0.94;67.98
76746;BME280;65671;49.976;20.038;2023-03-01T08:47:32;99040.25;;;1.01;68.35
76746;BME280;65671;49.976;20.038;2023-03-01T08:49:59;99037.28;;;1.03;68.79
76746;BME280;65671;49.976;20.038;2023-03-01T08:52:25;99037.63;;;1.10;68.03
76746;BME280;65671;49.976;20.038;2023-03-01T08:54:52;99035.28;;;1.08;67.69
76746;BME280;65671;49.976;20.038;2023-03-01T08:57:17;99042.19;;;1.32;67.13
76746;BME280;65671;49.976;20.038;2023-03-01T08:59:43;99037.09;;;1.22;67.52
76746;BME280;65671;49.976;20.038;2023-03-01T09:02:12;99044.66;;;1.28;66.89
76746;BME280;65671;49.976;20.038;2023-03-01T09:04:38;99049.25;;;1.58;65.73
76746;BME280;65671;49.976;20.038;2023-03-01T09:07:03;99047.66;;;1.57;64.49
76746;BME280;65671;49.976;20.038;2023-03-01T09:09:29;99043.28;;;1.61;64.45
76746;BME280;65671;49.976;20.038;2023-03-01T09:11:54;99045.81;;;1.66;65.00
76746;BME280;65671;49.976;20.038;2023-03-01T09:14:20;99045.84;;;1.75;64.84
76746;BME280;65671;49.976;20.038;2023-03-01T09:16:45;99047.47;;;1.54;63.99
76746;BME280;65671;49.976;20.038;2023-03-01T09:19:12;99043.25;;;1.53;63.65
76746;BME280;65671;49.976;20.038;2023-03-01T09:21:38;99040.03;;;1.73;64.17
76746;BME280;65671;49.976;20.038;2023-03-01T09:24:05;99045.16;;;1.92;63.09
76746;BME280;65671;49.976;20.038;2023-03-01T09:26:31;99038.47;;;1.72;61.92
76746;BME280;65671;49.976;20.038;2023-03-01T09:28:56;99041.16;;;1.81;62.23
76746;BME280;65671;49.976;20.038;2023-03-01T09:31:23;99047.63;;;1.80;63.62
76746;BME280;65671;49.976;20.038;2023-03-01T09:33:51;99030.69;;;1.93;61.47
76746;BME280;65671;49.976;20.038;2023-03-01T09:36:22;99048.59;;;1.92;62.12
76746;BME280;65671;49.976;20.038;2023-03-01T09:38:49;99039.34;;;1.98;60.38
76746;BME280;65671;49.976;20.038;2023-03-01T09:44:51;99038.16;;;1.74;60.36
76746;BME280;65671;49.976;20.038;2023-03-01T09:47:20;99042.00;;;1.90;59.52
76746;BME280;65671;49.976;20.038;2023-03-01T09:50:06;99041.63;;;2.22;57.98
76746;BME280;65671;49.976;20.038;2023-03-01T09:55:11;99031.22;;;2.12;59.70
76746;BME280;65671;49.976;20.038;2023-03-01T10:02:49;99028.47;;;2.60;58.25
76746;BME280;65671;49.976;20.038;2023-03-01T10:05:30;99033.97;;;2.55;60.65
76746;BME280;65671;49.976;20.038;2023-03-01T10:10:32;99040.75;;;2.52;58.96
76746;BME280;65671;49.976;20.038;2023-03-01T10:13:00;99028.13;;;2.27;58.39
76746;BME280;65671;49.976;20.038;2023-03-01T10:15:39;99030.19;;;2.30;60.01
76746;BME280;65671;49.976;20.038;2023-03-01T10:18:13;99030.38;;;2.59;59.22
76746;BME280;65671;49.976;20.038;2023-03-01T10:23:16;99029.25;;;2.52;56.86
76746;BME280;65671;49.976;20.038;2023-03-01T10:25:44;99018.28;;;2.70;55.93
76746;BME280;65671;49.976;20.038;2023-03-01T10:30:53;99011.81;;;2.71;56.43
76746;BME280;65671;49.976;20.038;2023-03-01T10:33:32;99016.38;;;2.71;54.41
76746;BME280;65671;49.976;20.038;2023-03-01T10:35:59;99003.31;;;2.69;58.00
76746;BME280;65671;49.976;20.038;2023-03-01T10:38:25;99013.53;;;2.76;57.81
76746;BME280;65671;49.976;20.038;2023-03-01T10:40:59;98996.84;;;2.88;58.43
76746;BME280;65671;49.976;20.038;2023-03-01T10:46:32;98983.31;;;3.01;54.67
76746;BME280;65671;49.976;20.038;2023-03-01T10:51:33;99008.16;;;3.10;56.85
76746;BME280;65671;49.976;20.038;2023-03-01T10:53:58;99008.13;;;3.36;55.15
76746;BME280;65671;49.976;20.038;2023-03-01T10:56:24;99001.22;;;3.26;55.19
76746;BME280;65671;49.976;20.038;2023-03-01T11:01:26;99001.06;;;3.23;55.84
76746;BME280;65671;49.976;20.038;2023-03-01T11:06:34;99000.09;;;3.36;56.96
76746;BME280;65671;49.976;20.038;2023-03-01T11:09:18;99003.13;;;3.09;56.31
76746;BME280;65671;49.976;20.038;2023-03-01T11:11:44;98992.41;;;3.17;56.00
76746;BME280;65671;49.976;20.038;2023-03-01T11:14:25;98988.66;;;3.01;54.66
76746;BME280;65671;49.976;20.038;2023-03-01T11:17:13;98986.63;;;2.90;55.82
76746;BME280;65671;49.976;20.038;2023-03-01T11:19:41;98985.34;;;3.13;56.31
76746;BME280;65671;49.976;20.038;2023-03-01T11:22:16;98993.00;;;3.31;53.52
76746;BME280;65671;49.976;20.038;2023-03-01T11:24:52;98985.97;;;3.18;54.25
76746;BME280;65671;49.976;20.038;2023-03-01T11:32:43;98986.75;;;3.27;55.13
76746;BME280;65671;49.976;20.038;2023-03-01T11:35:18;98972.25;;;3.20;57.59
76746;BME280;65671;49.976;20.038;2023-03-01T11:38:09;98978.03;;;3.39;55.40
76746;BME280;65671;49.976;20.038;2023-03-01T11:40:54;98966.41;;;3.26;52.85
76746;BME280;65671;49.976;20.038;2023-03-01T11:43:33;98967.06;;;3.23;53.02
76746;BME280;65671;49.976;20.038;2023-03-01T11:51:24;98957.53;;;3.43;50.10
76746;BME280;65671;49.976;20.038;2023-03-01T11:56:38;98953.28;;;3.51;53.74
76746;BME280;65671;49.976;20.038;2023-03-01T12:07:19;98948.53;;;3.56;53.38
76746;BME280;65671;49.976;20.038;2023-03-01T12:26:35;98928.34;;;3.88;49.59
76746;BME280;65671;49.976;20.038;2023-03-01T12:29:30;98926.63;;;4.13;47.71
76746;BME280;65671;49.976;20.038;2023-03-01T12:34:59;98917.13;;;4.15;46.96
76746;BME280;65671;49.976;20.038;2023-03-01T12:37:41;98930.41;;;4.12;44.82
76746;BME280;65671;49.976;20.038;2023-03-01T12:40:29;98921.19;;;4.01;45.47
76746;BME280;65671;49.976;20.038;2023-03-01T12:43:57;98904.09;;;3.84;48.91
76746;BME280;65671;49.976;20.038;2023-03-01T12:46:34;98906.06;;;3.96;48.03
76746;BME280;65671;49.976;20.038;2023-03-01T12:51:32;98905.47;;;3.90;46.16
76746;BME280;65671;49.976;20.038;2023-03-01T12:54:07;98898.88;;;3.88;45.27
76746;BME280;65671;49.976;20.038;2023-03-01T12:56:38;98899.09;;;4.04;45.76
76746;BME280;65671;49.976;20.038;2023-03-01T12:59:29;98896.56;;;4.07;42.69
76746;BME280;65671;49.976;20.038;2023-03-01T13:05:18;98902.63;;;4.16;41.80
76746;BME280;65671;49.976;20.038;2023-03-01T13:15:37;98882.59;;;4.14;43.00
76746;BME280;65671;49.976;20.038;2023-03-01T13:20:48;98899.69;;;4.30;44.46
76746;BME280;65671;49.976;20.038;2023-03-01T13:26:06;98896.72;;;4.43;43.35
76746;BME280;65671;49.976;20.038;2023-03-01T13:31:03;98891.94;;;4.49;41.14
76746;BME280;65671;49.976;20.038;2023-03-01T13:36:02;98886.13;;;4.80;38.67
76746;BME280;65671;49.976;20.038;2023-03-01T13:49:59;98880.44;;;4.48;42.83
76746;BME280;65671;49.976;20.038;2023-03-01T13:52:43;98869.31;;;4.38;43.05
76746;BME280;65671;49.976;20.038;2023-03-01T13:57:54;98860.94;;;4.60;46.46
76746;BME280;65671;49.976;20.038;2023-03-01T14:00:31;98845.00;;;4.43;44.94
76746;BME280;65671;49.976;20.038;2023-03-01T14:05:27;98844.84;;;4.60;43.67
76746;BME280;65671;49.976;20.038;2023-03-01T14:07:54;98851.66;;;4.70;43.29
76746;BME280;65671;49.976;20.038;2023-03-01T14:10:19;98849.94;;;4.53;43.95
76746;BME280;65671;49.976;20.038;2023-03-01T14:12:55;98843.72;;;4.61;46.69
76746;BME280;65671;49.976;20.038;2023-03-01T14:15:33;98846.06;;;4.30;47.36
76746;BME280;65671;49.976;20.038;2023-03-01T14:20:41;98843.19;;;4.35;47.07
76746;BME280;65671;49.976;20.038;2023-03-01T14:23:15;98835.44;;;4.21;48.03
76746;BME280;65671;49.976;20.038;2023-03-01T14:25:48;98830.91;;;4.34;47.00
76746;BME280;65671;49.976;20.038;2023-03-01T14:28:24;98840.19;;;4.36;45.50
76746;BME280;65671;49.976;20.038;2023-03-01T14:31:01;98830.13;;;4.33;48.20
76746;BME280;65671;49.976;20.038;2023-03-01T14:33:31;98834.63;;;4.21;47.13
76746;BME280;65671;49.976;20.038;2023-03-01T14:36:09;98836.41;;;4.49;46.14
76746;BME280;65671;49.976;20.038;2023-03-01T14:38:47;98836.78;;;4.27;45.45
76746;BME280;65671;49.976;20.038;2023-03-01T14:41:15;98828.66;;;4.36;45.31
76746;BME280;65671;49.976;20.038;2023-03-01T14:43:46;98844.13;;;4.18;49.17
76746;BME280;65671;49.976;20.038;2023-03-01T14:46:29;98837.34;;;4.00;50.45
76746;BME280;65671;49.976;20.038;2023-03-01T14:49:11;98836.22;;;4.22;46.68
76746;BME280;65671;49.976;20.038;2023-03-01T14:51:41;98833.09;;;4.32;45.63
76746;BME280;65671;49.976;20.038;2023-03-01T14:54:42;98834.34;;;4.34;46.08
76746;BME280;65671;49.976;20.038;2023-03-01T14:57:22;98834.81;;;4.36;45.16
76746;BME280;65671;49.976;20.038;2023-03-01T14:59:50;98828.59;;;4.89;44.12
76746;BME280;65671;49.976;20.038;2023-03-01T15:02:19;98835.75;;;4.97;44.12
76746;BME280;65671;49.976;20.038;2023-03-01T15:04:49;98834.84;;;5.05;44.37
76746;BME280;65671;49.976;20.038;2023-03-01T15:07:29;98832.41;;;5.00;46.14
76746;BME280;65671;49.976;20.038;2023-03-01T15:09:58;98824.16;;;4.61;46.22